createdAt,value
2023-04-08T00:03:02.571Z,76.15
2023-04-08T00:08:06.528Z,76.26
2023-04-08T00:13:09.742Z,75.40
2023-04-08T00:18:16.811Z,74.55
2023-04-08T00:23:21.491Z,74.34
2023-04-08T00:28:24.397Z,74.51
2023-04-08T00:33:27.197Z,74.27
2023-04-08T00:38:30.513Z,74.10
2023-04-08T00:43:33.370Z,73.88
2023-04-08T00:48:36.340Z,73.40
2023-04-08T00:53:39.190Z,72.98
2023-04-08T00:58:42.008Z,72.44
2023-04-08T01:04:02.333Z,72.22
2023-04-08T01:09:06.180Z,72.49
2023-04-08T01:14:12.059Z,72.33
2023-04-08T01:19:27.919Z,72.53
2023-04-08T01:24:36.602Z,72.52
2023-04-08T01:29:40.181Z,72.25
2023-04-08T01:34:44.414Z,72.36
2023-04-08T01:39:49.347Z,71.77
2023-04-08T01:44:55.572Z,71.88
2023-04-08T01:49:59.918Z,71.67
2023-04-08T01:55:02.906Z,71.74
2023-04-08T02:00:10.398Z,72.19
2023-04-08T02:05:14.220Z,72.49
2023-04-08T02:10:16.952Z,72.50
2023-04-08T02:15:19.930Z,72.82
2023-04-08T02:20:33.409Z,72.83
2023-04-08T02:25:40.091Z,72.46
2023-04-08T02:30:48.330Z,72.34
2023-04-08T02:35:56.096Z,72.40
2023-04-08T02:40:59.113Z,72.02
2023-04-08T02:46:04.082Z,72.21
2023-04-08T02:51:07.205Z,72.14
2023-04-08T02:56:12.855Z,72.08
2023-04-08T03:01:15.719Z,71.98
2023-04-08T03:06:18.701Z,71.97
2023-04-08T03:11:21.621Z,72.08
2023-04-08T03:16:24.560Z,72.21
2023-04-08T03:21:27.486Z,72.26
2023-04-08T03:26:30.409Z,72.01
2023-04-08T03:31:33.632Z,71.83
2023-04-08T03:36:36.477Z,71.44
2023-04-08T03:41:39.400Z,71.76
2023-04-08T03:46:42.309Z,71.77
2023-04-08T03:51:45.136Z,71.77
2023-04-08T03:56:50.588Z,71.77
2023-04-08T04:01:53.745Z,71.62
2023-04-08T04:06:56.714Z,71.70
2023-04-08T04:11:59.557Z,71.42
2023-04-08T04:17:02.379Z,71.31
2023-04-08T04:22:05.193Z,71.14
2023-04-08T04:27:08.020Z,70.92
2023-04-08T04:32:10.854Z,71.23
2023-04-08T04:37:14.168Z,71.48
2023-04-08T04:42:17.020Z,70.57
2023-04-08T04:47:20.053Z,69.97
2023-04-08T04:52:22.871Z,69.63
2023-04-08T04:57:25.689Z,69.09
2023-04-08T05:02:28.597Z,68.86
2023-04-08T05:07:31.608Z,68.34
2023-04-08T05:12:34.431Z,68.43
2023-04-08T05:17:37.368Z,68.72
2023-04-08T05:22:40.419Z,69.19
2023-04-08T05:27:43.239Z,69.67
2023-04-08T05:32:46.098Z,70.07
2023-04-08T05:37:48.905Z,70.12
2023-04-08T05:42:51.745Z,70.32
2023-04-08T05:47:54.666Z,70.61
2023-04-08T05:52:57.575Z,70.97
2023-04-08T05:58:00.381Z,70.98
2023-04-08T06:03:03.365Z,70.80
2023-04-08T06:08:06.877Z,70.40
2023-04-08T06:13:09.674Z,70.18
2023-04-08T06:18:12.465Z,70.31
2023-04-08T06:23:15.685Z,70.63
2023-04-08T06:28:18.524Z,70.57
2023-04-08T06:33:21.339Z,70.12
2023-04-08T06:38:24.187Z,69.93
2023-04-08T06:43:27.642Z,70.02
2023-04-08T06:48:31.013Z,69.41
2023-04-08T06:53:33.904Z,69.25
2023-04-08T06:58:36.701Z,69.16
2023-04-08T07:03:39.670Z,69.13
2023-04-08T07:08:42.639Z,69.22
2023-04-08T07:13:45.441Z,69.49
2023-04-08T07:18:48.429Z,69.53
2023-04-08T07:23:51.370Z,69.64
2023-04-08T07:28:54.144Z,69.62
2023-04-08T07:33:56.974Z,70.45
2023-04-08T07:38:59.764Z,69.98
2023-04-08T07:44:02.676Z,69.37
2023-04-08T07:49:05.713Z,69.51
2023-04-08T07:54:08.557Z,69.72
2023-04-08T07:59:12.298Z,69.73
2023-04-08T08:04:15.225Z,69.65
2023-04-08T08:09:18.139Z,68.79
2023-04-08T08:14:21.851Z,69.13
2023-04-08T08:19:24.704Z,68.84
2023-04-08T08:24:27.597Z,69.39
2023-04-08T08:29:30.512Z,69.42
2023-04-08T08:34:33.645Z,68.55
2023-04-08T08:39:36.749Z,68.09
2023-04-08T08:44:39.570Z,67.98
2023-04-08T08:49:43.016Z,67.98
2023-04-08T08:54:46.458Z,67.10
2023-04-08T08:59:49.636Z,68.00
2023-04-08T09:05:05.716Z,67.55
2023-04-08T09:10:10.101Z,67.54
2023-04-08T09:15:12.895Z,67.56
2023-04-08T09:20:15.850Z,66.96
2023-04-08T09:25:32.661Z,66.60
2023-04-08T09:30:36.908Z,66.39
2023-04-08T09:35:39.942Z,65.32
2023-04-08T09:40:43.743Z,64.67
2023-04-08T09:45:47.563Z,64.28
2023-04-08T09:50:57.066Z,62.95
2023-04-08T09:56:02.321Z,61.51
2023-04-08T10:01:07.845Z,60.62
2023-04-08T10:06:12.112Z,61.73
2023-04-08T10:11:18.626Z,61.73
2023-04-08T10:16:27.507Z,62.14
2023-04-08T10:21:48.093Z,61.55
2023-04-08T10:26:51.168Z,61.47
2023-04-08T10:31:54.150Z,61.41
2023-04-08T10:36:59.515Z,61.30
2023-04-08T10:42:02.761Z,59.73
2023-04-08T10:47:05.726Z,59.59
2023-04-08T10:52:09.435Z,60.06
2023-04-08T10:57:12.478Z,58.75
2023-04-08T11:02:16.672Z,58.85
2023-04-08T11:07:21.296Z,59.36
2023-04-08T11:12:24.176Z,60.27
2023-04-08T11:17:27.240Z,58.51
2023-04-08T11:22:31.072Z,57.24
2023-04-08T11:27:36.019Z,57.96
2023-04-08T11:32:40.047Z,56.89
2023-04-08T11:37:42.962Z,57.70
2023-04-08T11:42:47.039Z,57.82
2023-04-08T11:47:50.205Z,57.55
2023-04-08T11:52:54.188Z,57.47
2023-04-08T11:58:02.081Z,57.12
2023-04-08T12:03:06.038Z,57.72
2023-04-08T12:08:08.885Z,57.10
2023-04-08T12:13:11.703Z,57.05
2023-04-08T12:18:14.525Z,57.28
2023-04-08T12:23:17.338Z,57.72
2023-04-08T12:28:20.434Z,57.09
2023-04-08T12:33:23.297Z,56.75
2023-04-08T12:38:27.162Z,57.14
2023-04-08T12:43:30.015Z,56.11
2023-04-08T12:48:33.261Z,55.50
2023-04-08T12:53:36.063Z,55.20
2023-04-08T12:58:38.851Z,55.49
2023-04-08T13:03:44.369Z,55.47
2023-04-08T13:08:49.122Z,55.01
2023-04-08T13:13:52.322Z,53.39
2023-04-08T13:18:55.100Z,54.23
2023-04-08T13:23:57.959Z,53.05
2023-04-08T13:29:01.366Z,52.94
2023-04-08T13:34:04.308Z,52.41
2023-04-08T13:39:07.144Z,52.66
2023-04-08T13:44:10.497Z,51.76
2023-04-08T13:49:13.734Z,51.87
2023-04-08T13:54:16.521Z,52.36
2023-04-08T13:59:19.351Z,52.60
2023-04-08T14:04:22.670Z,52.35
2023-04-08T14:09:25.702Z,52.39
2023-04-08T14:14:28.614Z,52.48
2023-04-08T14:19:32.202Z,52.37
2023-04-08T14:24:35.562Z,52.62
2023-04-08T14:29:38.438Z,52.46
2023-04-08T14:34:41.224Z,52.97
2023-04-08T14:39:44.810Z,52.88
2023-04-08T14:44:47.889Z,52.58
2023-04-08T14:49:51.893Z,53.04
2023-04-08T14:54:54.897Z,53.52
2023-04-08T14:59:57.746Z,53.48
2023-04-08T15:05:00.560Z,52.63
2023-04-08T15:10:03.433Z,51.95
2023-04-08T15:15:07.253Z,52.68
2023-04-08T15:20:10.955Z,51.94
2023-04-08T15:25:13.896Z,51.67
2023-04-08T15:30:17.235Z,52.32
2023-04-08T15:35:20.094Z,52.88
2023-04-08T15:40:23.101Z,53.55
2023-04-08T15:45:26.012Z,53.85
2023-04-08T15:50:30.259Z,54.12
2023-04-08T15:55:40.005Z,53.58
2023-04-08T16:00:43.012Z,54.29
2023-04-08T16:05:45.962Z,55.03
2023-04-08T16:10:48.794Z,55.10
2023-04-08T16:15:51.986Z,55.22
2023-04-08T16:20:55.866Z,55.59
2023-04-08T16:25:58.590Z,56.26
2023-04-08T16:31:01.898Z,56.42
2023-04-08T16:36:04.936Z,56.90
2023-04-08T16:41:10.068Z,56.90
2023-04-08T16:46:16.816Z,57.38
2023-04-08T16:51:19.647Z,57.69
2023-04-08T16:56:22.486Z,57.78
2023-04-08T17:01:27.169Z,58.41
2023-04-08T17:06:34.634Z,58.72
2023-04-08T17:11:37.431Z,58.86
2023-04-08T17:16:40.315Z,58.83
2023-04-08T17:21:43.176Z,58.86
2023-04-08T17:26:46.428Z,58.85
2023-04-08T17:31:49.737Z,59.14
2023-04-08T17:36:52.661Z,59.03
2023-04-08T17:41:57.083Z,58.80
2023-04-08T17:46:59.943Z,59.08
2023-04-08T17:52:06.140Z,59.20
2023-04-08T17:57:09.326Z,59.22
2023-04-08T18:02:12.258Z,59.32
2023-04-08T18:07:15.403Z,59.52
2023-04-08T18:12:18.625Z,59.59
2023-04-08T18:17:21.467Z,59.67
2023-04-08T18:22:24.305Z,59.86
2023-04-08T18:27:27.135Z,59.99
2023-04-08T18:32:29.985Z,59.83
2023-04-08T18:37:34.607Z,59.88
2023-04-08T18:42:37.432Z,59.91
2023-04-08T18:47:40.546Z,60.12
2023-04-08T18:52:43.731Z,60.12
2023-04-08T18:57:46.550Z,60.23
2023-04-08T19:02:49.551Z,60.60
2023-04-08T19:07:53.262Z,60.75
2023-04-08T19:12:56.160Z,60.72
2023-04-08T19:17:59.414Z,60.73
2023-04-08T19:23:02.294Z,61.47
2023-04-08T19:28:09.295Z,61.53
2023-04-08T19:33:12.370Z,61.88
2023-04-08T19:38:15.207Z,62.13
2023-04-08T19:43:18.037Z,61.58
2023-04-08T19:48:21.157Z,61.47
2023-04-08T19:53:24.010Z,61.44
2023-04-08T19:58:27.288Z,61.46
2023-04-08T20:03:30.252Z,61.64
2023-04-08T20:08:34.638Z,61.91
2023-04-08T20:13:37.626Z,62.02
2023-04-08T20:18:40.577Z,62.14
2023-04-08T20:23:46.302Z,62.33
2023-04-08T20:28:49.627Z,62.83
2023-04-08T20:33:53.575Z,62.92
2023-04-08T20:38:56.701Z,63.41
2023-04-08T20:43:59.502Z,63.36
2023-04-08T20:49:03.810Z,63.02
2023-04-08T20:54:06.738Z,63.02
2023-04-08T20:59:09.651Z,63.11
2023-04-08T21:04:12.481Z,63.35
2023-04-08T21:09:15.776Z,63.40
2023-04-08T21:14:18.593Z,63.79
2023-04-08T21:19:21.375Z,64.08
2023-04-08T21:24:24.149Z,64.16
2023-04-08T21:29:26.982Z,64.37
2023-04-08T21:34:29.838Z,64.52
2023-04-08T21:39:32.640Z,64.15
2023-04-08T21:44:35.581Z,64.19
2023-04-08T21:49:38.469Z,64.44
2023-04-08T21:54:41.288Z,65.13
2023-04-08T21:59:44.900Z,65.35
2023-04-08T22:04:48.260Z,65.40
2023-04-08T22:09:51.198Z,65.64
2023-04-08T22:14:54.330Z,65.81
2023-04-08T22:19:57.402Z,66.21
2023-04-08T22:25:00.371Z,66.22
2023-04-08T22:30:03.557Z,66.41
2023-04-08T22:35:06.908Z,66.62
2023-04-08T22:40:10.089Z,66.77
2023-04-08T22:45:12.906Z,66.67
2023-04-08T22:50:19.031Z,66.54
2023-04-08T22:55:21.899Z,66.82
2023-04-08T23:00:24.712Z,66.88
2023-04-08T23:05:27.562Z,66.79
2023-04-08T23:10:30.363Z,67.15
2023-04-08T23:15:33.234Z,67.44
2023-04-08T23:20:36.166Z,67.33
2023-04-08T23:25:38.999Z,67.45
2023-04-08T23:30:42.516Z,67.52
2023-04-08T23:35:45.481Z,67.62
2023-04-08T23:40:48.341Z,67.69
2023-04-08T23:45:51.154Z,67.76
2023-04-08T23:50:55.405Z,67.96
2023-04-08T23:56:06.691Z,68.20
